Redwood Falls Municipal Airport Redwood Falls US
ICAO: KRWF
IATA: RWF
Category: Medium
Scheduled Services: No

Elevation: 1024 ft
TransAlt. 18000 ft.

Airport Communications:
ASOS:126.575
MINNEAPOLIS CNTR:127.1
PRINCETON RDO:122.4
CTAF/UNICOM:123

KRWF Zoom In..

Runways:

(A) RW 05 length 2081 ft width 200 ft
---- / hdg 50

(B) RW 12 length 4001 ft width 100 ft
---- / hdg 124

(C) RW 23 length 2081 ft width 200 ft
---- / hdg 230

(D) RW 30 length 4001 ft width 100 ft
---- / hdg 304

Location; KRWF
Day. 03 / Time. 01.53 Zulu
* Altimeter: 29.88
* Temperature: 23° c. 73.4°f.
* Wind from: 000° Speed 00 kn.
Dewpoint: 16° c.
Visibility: 10 Statute Miles.
Clouds: Overcast 8500 ft.

KRWF 030153Z AUTO 00000KT 10SM OVC085 23/16 A2988 RMK AO2 SLP112 T02280156


Wind - Calm.

 
 
jpsmedia worldairports.se 2020   terms of use